createdAt,value
2023-05-09T00:00:49.352Z,14.9
2023-05-09T00:03:51.630Z,16.3
2023-05-09T00:06:53.401Z,15.7
2023-05-09T00:09:55.358Z,15.7
2023-05-09T00:12:57.349Z,17.3
2023-05-09T00:15:59.288Z,15
2023-05-09T00:19:01.301Z,17
2023-05-09T00:22:03.257Z,15.7
2023-05-09T00:25:05.189Z,14.9
2023-05-09T00:28:07.192Z,16.4
2023-05-09T00:31:09.161Z,16.4
2023-05-09T00:34:11.127Z,14.7
2023-05-09T00:37:13.088Z,22
2023-05-09T00:40:15.194Z,22.2
2023-05-09T00:43:17.102Z,17.3
2023-05-09T00:46:19.071Z,19.8
2023-05-09T00:49:26.040Z,21
2023-05-09T00:52:22.971Z,19.8
2023-05-09T00:55:24.988Z,21.2
2023-05-09T00:58:26.953Z,18.4
2023-05-09T01:01:28.910Z,20
2023-05-09T01:04:30.867Z,18.2
2023-05-09T01:07:32.813Z,17.7
2023-05-09T01:10:37.767Z,16.1
2023-05-09T01:13:39.609Z,17.2
2023-05-09T01:16:41.601Z,20.5
2023-05-09T01:19:43.548Z,20.3
2023-05-09T01:22:45.537Z,23.1
2023-05-09T01:25:47.486Z,19.1
2023-05-09T01:28:49.463Z,21.7
2023-05-09T01:31:51.449Z,20.9
2023-05-09T01:34:53.355Z,17.8
2023-05-09T01:37:55.316Z,15.7
2023-05-09T01:40:57.390Z,14.6
2023-05-09T01:43:59.331Z,17
2023-05-09T01:47:01.341Z,15.3
2023-05-09T01:53:05.260Z,23.2
2023-05-09T01:56:07.153Z,21.7
2023-05-09T01:59:09.158Z,20.9
2023-05-09T02:02:11.169Z,19.2
2023-05-09T02:05:13.420Z,16.8
2023-05-09T02:08:15.012Z,19.8
2023-05-09T02:11:17.033Z,21.1
2023-05-09T02:14:18.983Z,18.1
2023-05-09T02:17:20.943Z,19.1
2023-05-09T02:20:22.854Z,21.5
2023-05-09T02:23:24.822Z,21.5
2023-05-09T02:26:26.817Z,21.1
2023-05-09T02:29:28.747Z,22.5
2023-05-09T02:32:30.742Z,23.1
2023-05-09T02:35:32.698Z,18.5
2023-05-09T02:38:34.620Z,20.1
2023-05-09T02:41:36.955Z,19.4
2023-05-09T02:44:38.566Z,21.9
2023-05-09T02:47:40.564Z,17
2023-05-09T02:53:44.415Z,24.1
2023-05-09T02:56:46.431Z,22.8
2023-05-09T02:59:48.412Z,20.1
2023-05-09T03:02:50.433Z,21.3
2023-05-09T03:05:52.352Z,20.6
2023-05-09T03:08:54.333Z,19.5
2023-05-09T03:11:56.278Z,20.3
2023-05-09T03:14:58.246Z,21.4
2023-05-09T03:18:00.233Z,22.9
2023-05-09T03:21:02.142Z,20.7
2023-05-09T03:24:04.148Z,20
2023-05-09T03:27:06.052Z,19.4
2023-05-09T03:30:08.028Z,18.8
2023-05-09T03:33:10.081Z,22.3
2023-05-09T03:36:11.975Z,25
2023-05-09T03:39:13.967Z,23.3
2023-05-09T03:42:15.910Z,20.6
2023-05-09T03:45:17.905Z,17.3
2023-05-09T03:48:19.847Z,20.7
2023-05-09T03:51:21.801Z,18.4
2023-05-09T03:54:23.750Z,18.7
2023-05-09T03:57:25.737Z,18.5
2023-05-09T04:00:27.719Z,19.9
2023-05-09T04:03:29.741Z,18.2
2023-05-09T04:06:31.714Z,20.1
2023-05-09T04:09:33.592Z,23.2
2023-05-09T04:12:35.534Z,23
2023-05-09T04:15:37.742Z,25
2023-05-09T04:18:39.457Z,22.4
2023-05-09T04:21:41.431Z,23.8
2023-05-09T04:24:43.388Z,18.6
2023-05-09T04:27:45.371Z,20.4
2023-05-09T04:30:47.333Z,19.5
2023-05-09T04:33:49.276Z,15.9
2023-05-09T04:36:51.195Z,16
2023-05-09T04:39:53.153Z,16.8
2023-05-09T04:42:55.146Z,18
2023-05-09T04:45:57.101Z,21.7
2023-05-09T04:48:59.056Z,22.2
2023-05-09T04:52:01.042Z,19.2
2023-05-09T04:55:03.030Z,18.6
2023-05-09T04:58:05.016Z,18.9
2023-05-09T05:01:06.991Z,20.2
2023-05-09T05:04:08.945Z,18.8
2023-05-09T05:07:10.909Z,19.9
2023-05-09T05:10:12.831Z,18.5
2023-05-09T05:13:14.903Z,21
2023-05-09T05:16:16.927Z,18.5
2023-05-09T05:19:18.781Z,19.4
2023-05-09T05:22:20.725Z,18.8
2023-05-09T05:25:22.695Z,17.7
2023-05-09T05:28:24.657Z,17.5
2023-05-09T05:31:26.619Z,17.8
2023-05-09T05:34:28.612Z,18.5
2023-05-09T05:37:30.576Z,18.6
2023-05-09T05:40:32.522Z,15
2023-05-09T05:43:34.467Z,18.4
2023-05-09T05:46:36.450Z,17.4
2023-05-09T05:49:38.391Z,17.2
2023-05-09T05:52:40.355Z,13.6
2023-05-09T05:55:42.333Z,12.9
2023-05-09T05:58:44.290Z,15.6
2023-05-09T06:01:46.303Z,14
2023-05-09T06:04:48.200Z,14.5
2023-05-09T06:07:50.172Z,14.8
2023-05-09T06:10:52.150Z,18.2
2023-05-09T06:13:54.101Z,15.1
2023-05-09T06:16:56.159Z,15.1
2023-05-09T06:19:58.032Z,14.7
2023-05-09T06:22:59.988Z,12.2
2023-05-09T06:26:01.947Z,15
2023-05-09T06:29:03.928Z,15.8
2023-05-09T06:32:05.887Z,15.2
2023-05-09T06:35:07.999Z,16.9
2023-05-09T06:38:09.823Z,13.4
2023-05-09T06:41:11.802Z,14.3
2023-05-09T06:44:13.793Z,15.3
2023-05-09T06:47:15.685Z,16.2
2023-05-09T06:50:17.659Z,15.8
2023-05-09T06:53:19.688Z,15.5
2023-05-09T06:56:21.578Z,13
2023-05-09T06:59:23.529Z,13.2
2023-05-09T07:02:25.519Z,18.2
2023-05-09T07:05:27.518Z,15.2
2023-05-09T07:08:29.416Z,15.7
2023-05-09T07:11:31.413Z,15.8
2023-05-09T07:14:33.353Z,18
2023-05-09T07:17:35.316Z,15.5
2023-05-09T07:20:37.284Z,11.6
2023-05-09T07:23:39.274Z,11.6
2023-05-09T07:26:41.212Z,14.4
2023-05-09T07:29:43.150Z,9.7
2023-05-09T07:32:45.139Z,11.9
2023-05-09T07:35:47.094Z,13.1
2023-05-09T07:38:49.047Z,15.1
2023-05-09T07:41:51.057Z,10.6
2023-05-09T07:44:52.976Z,14.2
2023-05-09T07:47:55.030Z,15.5
2023-05-09T07:50:56.909Z,15.5
2023-05-09T07:53:58.849Z,11.7
2023-05-09T07:57:00.813Z,11.3
2023-05-09T08:00:02.777Z,12
2023-05-09T08:03:04.855Z,14.8
2023-05-09T08:06:06.698Z,12.1
2023-05-09T08:09:08.668Z,10.9
2023-05-09T08:12:10.657Z,10.3
2023-05-09T08:15:12.766Z,10.6
2023-05-09T08:18:14.586Z,12
2023-05-09T08:21:16.584Z,13
2023-05-09T08:24:18.527Z,11.6
2023-05-09T08:27:20.510Z,11.8
2023-05-09T08:30:22.491Z,11.1
2023-05-09T08:33:24.412Z,13.6
2023-05-09T08:36:26.374Z,14.1
2023-05-09T08:39:28.333Z,11.8
2023-05-09T08:42:30.311Z,9.4
2023-05-09T08:45:32.268Z,12.1
2023-05-09T08:48:35.973Z,13.2
2023-05-09T08:51:36.455Z,10.5
2023-05-09T08:54:38.254Z,9.9
2023-05-09T08:57:40.214Z,12.2
2023-05-09T09:00:42.207Z,12.3
2023-05-09T09:03:44.166Z,12.5
2023-05-09T09:06:46.274Z,15.8
2023-05-09T09:09:48.322Z,14.1
2023-05-09T09:12:50.414Z,15.3
2023-05-09T09:15:52.042Z,12.6
2023-05-09T09:18:53.981Z,10
2023-05-09T09:21:55.968Z,10.2
2023-05-09T09:24:57.996Z,11.1
2023-05-09T09:27:59.910Z,12.2
2023-05-09T09:31:01.877Z,9.9
2023-05-09T09:34:03.816Z,11.5
2023-05-09T09:37:05.803Z,11.7
2023-05-09T09:40:07.895Z,10.5
2023-05-09T09:43:09.732Z,11.3
2023-05-09T09:46:11.819Z,9.7
2023-05-09T09:49:13.676Z,13.5
2023-05-09T09:52:15.650Z,13.1
2023-05-09T09:55:17.702Z,9.6
2023-05-09T09:58:19.602Z,11.8
2023-05-09T10:01:21.577Z,9.8
2023-05-09T10:04:23.550Z,10.1
2023-05-09T10:07:25.483Z,10.7
2023-05-09T10:10:27.468Z,10.4
2023-05-09T10:13:29.442Z,9.7
2023-05-09T10:16:40.081Z,11.3
2023-05-09T10:19:33.331Z,11.8
2023-05-09T10:22:35.309Z,9
2023-05-09T10:25:37.275Z,10.4
2023-05-09T10:28:39.234Z,12.8
2023-05-09T10:31:41.246Z,12.8
2023-05-09T10:34:43.239Z,13.5
2023-05-09T10:37:45.156Z,11.6
2023-05-09T10:40:47.200Z,12.5
2023-05-09T10:43:49.152Z,13
2023-05-09T10:46:51.255Z,10.6
2023-05-09T10:49:53.048Z,10.4
2023-05-09T10:52:55.016Z,9.6
2023-05-09T10:55:56.992Z,9.7
2023-05-09T10:58:58.971Z,9.5
2023-05-09T11:02:01.279Z,8.2
2023-05-09T11:05:03.089Z,7.9
2023-05-09T11:08:05.028Z,11
2023-05-09T11:11:06.984Z,8.7
2023-05-09T11:14:08.967Z,8.4
2023-05-09T11:17:10.916Z,9.5
2023-05-09T11:20:12.907Z,9.1
2023-05-09T11:23:14.823Z,8.5
2023-05-09T11:26:16.799Z,9.7
2023-05-09T11:29:18.762Z,13.3
2023-05-09T11:32:20.749Z,11.5
2023-05-09T11:35:22.779Z,10.1
2023-05-09T11:38:24.689Z,9.8
2023-05-09T11:41:26.628Z,11.7
2023-05-09T11:44:28.609Z,12.1
2023-05-09T11:47:30.578Z,11.5
2023-05-09T11:50:32.529Z,12.7
2023-05-09T11:53:34.529Z,14.9
2023-05-09T11:56:36.540Z,11.4
2023-05-09T11:59:38.508Z,9.5
2023-05-09T12:02:40.578Z,11.3
2023-05-09T12:05:42.535Z,9.3
2023-05-09T12:08:44.462Z,10.3
2023-05-09T12:11:47.812Z,10
2023-05-09T12:14:48.559Z,9.2
2023-05-09T12:17:53.600Z,9.4
2023-05-09T12:20:55.600Z,8.5
2023-05-09T12:23:57.519Z,9.9
2023-05-09T12:26:59.568Z,7
2023-05-09T12:30:01.582Z,8.2
2023-05-09T12:33:03.541Z,10.9
2023-05-09T12:36:05.469Z,9.6
2023-05-09T12:39:07.559Z,10.6
2023-05-09T12:42:09.548Z,9.6
2023-05-09T12:45:11.693Z,17.4
2023-05-09T12:48:13.622Z,13
2023-05-09T12:51:15.568Z,11.5
2023-05-09T12:54:17.565Z,15.5
2023-05-09T12:57:19.607Z,16.6
2023-05-09T13:00:21.558Z,13.7
2023-05-09T13:03:23.601Z,13.1
2023-05-09T13:06:25.505Z,14.6
2023-05-09T13:09:30.495Z,12.6
2023-05-09T13:12:32.403Z,15.1
2023-05-09T13:15:34.393Z,11
2023-05-09T13:18:36.325Z,15
2023-05-09T13:21:38.432Z,14.3
2023-05-09T13:24:40.406Z,13.6
2023-05-09T13:27:42.320Z,11
2023-05-09T13:30:44.329Z,11.1
2023-05-09T13:33:46.264Z,13.1
2023-05-09T13:36:48.237Z,11.5
2023-05-09T13:39:50.173Z,11.9
2023-05-09T13:42:52.181Z,14
2023-05-09T13:45:56.875Z,10.7
2023-05-09T13:48:58.834Z,14.1
2023-05-09T13:52:00.826Z,13.3
2023-05-09T13:55:02.735Z,13.8
2023-05-09T13:58:04.678Z,9
2023-05-09T14:01:06.681Z,19
2023-05-09T14:04:08.749Z,11.6
2023-05-09T14:07:10.757Z,12.4
2023-05-09T14:10:12.740Z,12.1
2023-05-09T14:13:14.686Z,13.5
2023-05-09T14:16:16.692Z,16.9
2023-05-09T14:19:18.579Z,12
2023-05-09T14:22:20.539Z,11.5
2023-05-09T14:25:22.498Z,13
2023-05-09T14:28:24.491Z,13.9
2023-05-09T14:31:26.503Z,13.1
2023-05-09T14:34:28.406Z,13.2
2023-05-09T14:37:30.398Z,13.5
2023-05-09T14:40:32.336Z,12.2
2023-05-09T14:43:34.250Z,12.9
2023-05-09T14:46:36.377Z,16.5
2023-05-09T14:49:38.450Z,16.1
2023-05-09T14:52:40.271Z,15.1
2023-05-09T14:55:42.263Z,12.8
2023-05-09T14:58:44.268Z,15.1
2023-05-09T15:01:46.215Z,14.1
2023-05-09T15:04:48.421Z,11.5
2023-05-09T15:07:50.182Z,12.9
2023-05-09T15:10:52.150Z,14.2
2023-05-09T15:13:54.106Z,16.9
2023-05-09T15:16:56.119Z,12.5
2023-05-09T15:19:58.044Z,16
2023-05-09T15:23:00.118Z,14.8
2023-05-09T15:26:02.054Z,14.3
2023-05-09T15:29:04.077Z,12.6
2023-05-09T15:32:06.056Z,17.6
2023-05-09T15:35:08.045Z,17.8
2023-05-09T15:38:10.093Z,20.3
2023-05-09T15:41:11.934Z,15.7
2023-05-09T15:44:13.879Z,19.8
2023-05-09T15:47:16.182Z,16.1
2023-05-09T15:50:18.050Z,15.5
2023-05-09T15:53:19.762Z,18.8
2023-05-09T15:56:21.868Z,25.7
2023-05-09T15:59:23.762Z,24.9
2023-05-09T16:02:25.869Z,23.5
2023-05-09T16:05:27.728Z,26.5
2023-05-09T16:08:29.677Z,28.1
2023-05-09T16:11:31.664Z,27.9
2023-05-09T16:14:33.649Z,24.5
2023-05-09T16:17:35.568Z,25.1
2023-05-09T16:20:37.561Z,24.1
2023-05-09T16:23:39.522Z,26.8
2023-05-09T16:26:41.497Z,19.7
2023-05-09T16:29:43.444Z,23.9
2023-05-09T16:32:45.495Z,17.5
2023-05-09T16:35:47.356Z,22.9
2023-05-09T16:38:49.354Z,21.9
2023-05-09T16:41:51.328Z,22.8
2023-05-09T16:44:53.283Z,24.7
2023-05-09T16:47:55.559Z,25.8
2023-05-09T16:50:57.192Z,22.5
2023-05-09T16:53:59.203Z,21.8
2023-05-09T16:57:01.142Z,24.2
2023-05-09T17:00:03.093Z,24.7
2023-05-09T17:03:05.046Z,23
2023-05-09T17:06:06.985Z,23.3
2023-05-09T17:09:08.948Z,27
2023-05-09T17:12:10.926Z,27.1
2023-05-09T17:15:12.907Z,23.6
2023-05-09T17:18:19.439Z,25.2
2023-05-09T17:21:16.893Z,22.3
2023-05-09T17:24:18.856Z,18.9
2023-05-09T17:27:20.828Z,18.4
2023-05-09T17:30:23.271Z,21.4
2023-05-09T17:33:24.760Z,16.6
2023-05-09T17:36:27.085Z,18.4
2023-05-09T17:39:28.664Z,21.9
2023-05-09T17:42:30.648Z,24.9
2023-05-09T17:45:32.715Z,22
2023-05-09T17:48:34.604Z,24.5
2023-05-09T17:51:36.538Z,19
2023-05-09T17:54:38.618Z,22.2
2023-05-09T17:57:40.462Z,18.3
2023-05-09T18:00:42.404Z,18.2
2023-05-09T18:03:44.480Z,17.3
2023-05-09T18:06:46.355Z,21.3
2023-05-09T18:09:48.670Z,22.1
2023-05-09T18:12:50.267Z,28.4
2023-05-09T18:15:52.257Z,30.8
2023-05-09T18:18:54.194Z,24.1
2023-05-09T18:21:56.157Z,18.1
2023-05-09T18:24:58.142Z,18.4
2023-05-09T18:28:00.195Z,14.6
2023-05-09T18:31:02.132Z,16.5
2023-05-09T18:34:04.014Z,14.4
2023-05-09T18:37:05.983Z,16.7
2023-05-09T18:40:07.989Z,15.9
2023-05-09T18:43:09.940Z,14.1
2023-05-09T18:46:11.880Z,15
2023-05-09T18:49:13.880Z,13.7
2023-05-09T18:52:15.805Z,17.1
2023-05-09T18:55:17.761Z,12.1
2023-05-09T18:58:19.739Z,10.7
2023-05-09T19:01:21.775Z,10.5
2023-05-09T19:04:23.763Z,9.2
2023-05-09T19:07:25.701Z,10.7
2023-05-09T19:10:27.624Z,10.3
2023-05-09T19:13:29.700Z,11.1
2023-05-09T19:16:31.583Z,9.8
2023-05-09T19:19:33.532Z,9.2
2023-05-09T19:22:35.489Z,6.5
2023-05-09T19:25:37.431Z,9.9
2023-05-09T19:28:39.389Z,8.3
2023-05-09T19:31:41.376Z,7.1
2023-05-09T19:34:43.345Z,8.8
2023-05-09T19:37:45.278Z,8.5
2023-05-09T19:40:47.260Z,12.6
2023-05-09T19:43:49.212Z,7.7
2023-05-09T19:46:51.210Z,9.8
2023-05-09T19:49:53.162Z,11.1
2023-05-09T19:52:55.156Z,10.2
2023-05-09T19:55:57.105Z,8.6
2023-05-09T19:58:59.075Z,10.4
2023-05-09T20:02:01.039Z,10.2
2023-05-09T20:05:02.954Z,8.7
2023-05-09T20:08:04.921Z,9
2023-05-09T20:11:06.879Z,7.9
2023-05-09T20:14:08.860Z,7.7
2023-05-09T20:17:10.850Z,6.4
2023-05-09T20:20:12.814Z,9.2
2023-05-09T20:23:14.784Z,9.6
2023-05-09T20:26:16.698Z,6.9
2023-05-09T20:29:18.674Z,8
2023-05-09T20:32:20.619Z,8
2023-05-09T20:35:22.562Z,7.3
2023-05-09T20:38:26.818Z,7.9
2023-05-09T20:41:26.545Z,7.7
2023-05-09T20:44:28.468Z,12.9
2023-05-09T20:47:30.517Z,8.7
2023-05-09T20:50:32.403Z,12.5
2023-05-09T20:53:34.404Z,13.4
2023-05-09T20:56:36.376Z,14.6
2023-05-09T20:59:38.282Z,7.6
2023-05-09T21:02:40.340Z,8.6
2023-05-09T21:05:42.186Z,8.3
2023-05-09T21:08:44.180Z,6.5
2023-05-09T21:11:46.099Z,5.3
2023-05-09T21:14:48.090Z,4.5
2023-05-09T21:17:50.090Z,5.7
2023-05-09T21:20:52.032Z,5.7
2023-05-09T21:23:53.979Z,7.3
2023-05-09T21:26:55.972Z,8
2023-05-09T21:29:57.899Z,6.9
2023-05-09T21:32:59.913Z,9
2023-05-09T21:36:01.848Z,7.5
2023-05-09T21:39:03.791Z,8.5
2023-05-09T21:42:05.778Z,6.7
2023-05-09T21:45:07.741Z,6.1
2023-05-09T21:48:09.731Z,6.3
2023-05-09T21:51:11.862Z,6.7
2023-05-09T21:54:13.606Z,7.6
2023-05-09T21:57:15.558Z,7.4
2023-05-09T22:00:17.794Z,5.8
2023-05-09T22:03:19.534Z,6.4
2023-05-09T22:06:21.467Z,7.9
2023-05-09T22:09:23.419Z,6.9
2023-05-09T22:12:25.381Z,5.6
2023-05-09T22:15:27.339Z,8.4
2023-05-09T22:18:29.301Z,6.8
2023-05-09T22:21:31.289Z,7.4
2023-05-09T22:24:33.212Z,8.5
2023-05-09T22:27:35.183Z,6.9
2023-05-09T22:30:37.174Z,6
2023-05-09T22:33:39.144Z,6.3
2023-05-09T22:36:41.082Z,7.6
2023-05-09T22:39:43.045Z,7.7
2023-05-09T22:42:45.005Z,6.4
2023-05-09T22:45:47.012Z,8.6
2023-05-09T22:48:48.972Z,7.7
2023-05-09T22:51:50.876Z,6.7
2023-05-09T22:54:52.855Z,8.1
2023-05-09T22:57:54.854Z,6.4
2023-05-09T23:00:56.878Z,7.9
2023-05-09T23:03:58.816Z,8.9
2023-05-09T23:07:00.772Z,7.1
2023-05-09T23:10:02.737Z,7.2
2023-05-09T23:13:04.762Z,7.3
2023-05-09T23:16:06.647Z,6.1
2023-05-09T23:19:08.586Z,7.9
2023-05-09T23:22:10.536Z,6.7
2023-05-09T23:25:12.543Z,7.9
2023-05-09T23:28:14.486Z,7.2
2023-05-09T23:31:16.461Z,9.4
2023-05-09T23:34:18.424Z,9.7
2023-05-09T23:37:20.384Z,9.9
2023-05-09T23:40:22.334Z,7
2023-05-09T23:43:24.337Z,4.6
2023-05-09T23:46:26.291Z,4.1
2023-05-09T23:49:28.248Z,3.5
2023-05-09T23:52:30.210Z,3.9
2023-05-09T23:55:32.161Z,4
2023-05-09T23:58:34.104Z,3.6
